createdAt,value
2022-08-25T00:02:09.932Z,101633.22
2022-08-25T00:04:38.199Z,101627.06
2022-08-25T00:07:08.075Z,101628.19
2022-08-25T00:09:37.182Z,101628.50
2022-08-25T00:12:07.225Z,101630.03
2022-08-25T00:14:38.338Z,101630.44
2022-08-25T00:17:08.217Z,101630.34
2022-08-25T00:19:38.976Z,101630.78
2022-08-25T00:22:08.189Z,101633.94
2022-08-25T00:24:37.121Z,101635.38
2022-08-25T00:27:06.349Z,101627.25
2022-08-25T00:29:37.970Z,101625.59
2022-08-25T00:32:07.804Z,101625.66
2022-08-25T00:34:39.589Z,101618.00
2022-08-25T00:37:10.132Z,101620.06
2022-08-25T00:39:40.120Z,101613.84
2022-08-25T00:42:11.847Z,101614.91
2022-08-25T00:44:44.785Z,101607.31
2022-08-25T00:47:14.512Z,101606.63
2022-08-25T00:49:48.924Z,101604.41
2022-08-25T00:52:23.011Z,101609.88
2022-08-25T00:54:56.919Z,101616.66
2022-08-25T00:57:34.633Z,101610.31
2022-08-25T01:00:07.397Z,101605.16
2022-08-25T01:02:36.583Z,101623.59
2022-08-25T01:05:05.487Z,101617.94
2022-08-25T01:07:33.460Z,101620.44
2022-08-25T01:10:03.010Z,101620.81
2022-08-25T01:12:31.006Z,101627.91
2022-08-25T01:14:59.690Z,101621.31
2022-08-25T01:17:36.004Z,101626.63
2022-08-25T01:20:05.552Z,101621.75
2022-08-25T01:22:34.745Z,101615.81
2022-08-25T01:25:14.323Z,101613.84
2022-08-25T01:27:42.165Z,101615.88
2022-08-25T01:30:11.153Z,101623.56
2022-08-25T01:32:38.949Z,101623.78
2022-08-25T01:35:08.339Z,101615.75
2022-08-25T01:37:37.918Z,101616.50
2022-08-25T01:40:07.190Z,101617.22
2022-08-25T01:42:58.588Z,101617.69
2022-08-25T01:45:27.182Z,101619.00
2022-08-25T01:47:56.841Z,101619.53
2022-08-25T01:50:24.961Z,101613.50
2022-08-25T01:53:00.072Z,101614.72
2022-08-25T01:55:28.736Z,101610.50
2022-08-25T01:57:57.239Z,101616.22
2022-08-25T02:00:26.100Z,101617.09
2022-08-25T02:02:55.443Z,101616.16
2022-08-25T02:05:23.980Z,101611.50
2022-08-25T02:07:52.051Z,101606.56
2022-08-25T02:10:21.329Z,101602.66
2022-08-25T02:12:51.742Z,101609.03
2022-08-25T02:15:22.562Z,101601.25
2022-08-25T02:17:50.434Z,101603.72
2022-08-25T02:20:19.008Z,101600.75
2022-08-25T02:22:56.501Z,101598.31
2022-08-25T02:25:26.925Z,101592.28
2022-08-25T02:27:55.336Z,101598.34
2022-08-25T02:30:23.624Z,101593.72
2022-08-25T02:32:52.060Z,101594.25
2022-08-25T02:35:21.162Z,101593.22
2022-08-25T02:37:49.033Z,101590.69
2022-08-25T02:40:17.303Z,101592.53
2022-08-25T02:42:46.504Z,101590.34
2022-08-25T02:45:14.401Z,101594.44
2022-08-25T02:47:42.742Z,101580.75
2022-08-25T02:50:11.608Z,101581.31
2022-08-25T02:52:41.145Z,101588.31
2022-08-25T02:55:14.075Z,101583.94
2022-08-25T02:57:42.823Z,101581.38
2022-08-25T03:00:15.803Z,101577.41
2022-08-25T03:02:46.788Z,101577.50
2022-08-25T03:05:16.655Z,101579.81
2022-08-25T03:07:44.601Z,101578.69
2022-08-25T03:10:18.383Z,101581.00
2022-08-25T03:12:46.493Z,101572.34
2022-08-25T03:15:18.802Z,101575.94
2022-08-25T03:17:49.395Z,101566.16
2022-08-25T03:20:20.349Z,101569.66
2022-08-25T03:22:48.851Z,101565.53
2022-08-25T03:25:36.037Z,101567.69
2022-08-25T03:28:05.207Z,101566.13
2022-08-25T03:30:35.256Z,101558.41
2022-08-25T03:33:03.367Z,101563.41
2022-08-25T03:35:31.226Z,101562.59
2022-08-25T03:38:02.105Z,101555.63
2022-08-25T03:40:30.628Z,101556.72
2022-08-25T03:42:58.502Z,101556.03
2022-08-25T03:45:26.991Z,101553.69
2022-08-25T03:47:56.718Z,101556.69
2022-08-25T03:50:25.788Z,101555.50
2022-08-25T03:52:56.277Z,101555.00
2022-08-25T03:55:26.712Z,101558.94
2022-08-25T03:57:57.384Z,101562.06
2022-08-25T04:00:25.370Z,101555.78
2022-08-25T04:02:53.278Z,101562.31
2022-08-25T04:05:22.677Z,101551.47
2022-08-25T04:07:54.829Z,101563.16
2022-08-25T04:10:23.307Z,101565.88
2022-08-25T04:12:51.131Z,101564.03
2022-08-25T04:15:19.477Z,101575.72
2022-08-25T04:17:47.321Z,101577.44
2022-08-25T04:20:18.885Z,101575.88
2022-08-25T04:22:48.164Z,101577.16
2022-08-25T04:25:16.084Z,101576.47
2022-08-25T04:27:44.020Z,101582.63
2022-08-25T04:30:14.001Z,101575.56
2022-08-25T04:32:41.886Z,101583.06
2022-08-25T04:35:11.096Z,101588.84
2022-08-25T04:37:38.955Z,101598.63
2022-08-25T04:40:10.495Z,101595.94
2022-08-25T04:42:39.340Z,101593.88
2022-08-25T04:45:08.602Z,101583.97
2022-08-25T04:47:39.388Z,101583.22
2022-08-25T04:50:08.882Z,101590.88
2022-08-25T04:52:37.846Z,101585.69
2022-08-25T04:55:06.316Z,101584.41
2022-08-25T04:57:35.836Z,101576.28
2022-08-25T05:00:05.717Z,101587.78
2022-08-25T05:02:33.516Z,101587.13
2022-08-25T05:05:02.755Z,101579.53
2022-08-25T05:07:30.908Z,101580.00
2022-08-25T05:09:58.847Z,101575.22
2022-08-25T05:12:26.648Z,101580.59
2022-08-25T05:15:18.836Z,101586.16
2022-08-25T05:17:46.627Z,101587.50
2022-08-25T05:20:14.546Z,101585.19
2022-08-25T05:22:46.952Z,101575.81
2022-08-25T05:25:15.778Z,101590.25
2022-08-25T05:27:44.293Z,101582.69
2022-08-25T05:30:13.908Z,101583.06
2022-08-25T05:32:41.753Z,101593.44
2022-08-25T05:35:10.264Z,101580.88
2022-08-25T05:37:38.551Z,101600.81
2022-08-25T05:40:08.278Z,101599.25
2022-08-25T05:42:37.314Z,101596.88
2022-08-25T05:45:06.590Z,101606.50
2022-08-25T05:47:35.997Z,101603.28
2022-08-25T05:50:04.597Z,101604.66
2022-08-25T05:52:32.955Z,101615.00
2022-08-25T05:55:00.741Z,101615.06
2022-08-25T05:57:28.553Z,101607.28
2022-08-25T05:59:56.404Z,101608.91
2022-08-25T06:02:41.566Z,101614.06
2022-08-25T06:05:13.594Z,101605.31
2022-08-25T06:07:41.579Z,101602.75
2022-08-25T06:10:13.391Z,101604.78
2022-08-25T06:12:45.332Z,101600.78
2022-08-25T06:15:15.623Z,101599.47
2022-08-25T06:17:44.335Z,101601.38
2022-08-25T06:20:17.212Z,101598.44
2022-08-25T06:22:45.878Z,101600.81
2022-08-25T06:25:20.825Z,101602.41
2022-08-25T06:27:49.257Z,101602.50
2022-08-25T06:30:28.416Z,101610.19
2022-08-25T06:32:56.965Z,101607.94
2022-08-25T06:35:26.160Z,101602.78
2022-08-25T06:37:54.748Z,101598.53
2022-08-25T06:40:23.114Z,101598.78
2022-08-25T06:42:50.955Z,101608.56
2022-08-25T06:45:19.425Z,101604.06
2022-08-25T06:47:47.337Z,101606.16
2022-08-25T06:50:15.580Z,101614.59
2022-08-25T06:52:44.780Z,101612.47
2022-08-25T06:55:13.065Z,101619.88
2022-08-25T06:57:40.896Z,101612.09
2022-08-25T07:00:12.335Z,101620.75
2022-08-25T07:02:40.749Z,101608.88
2022-08-25T07:05:13.272Z,101612.53
2022-08-25T07:07:44.039Z,101612.66
2022-08-25T07:10:14.309Z,101617.53
2022-08-25T07:12:47.280Z,101614.91
2022-08-25T07:15:20.366Z,101609.84
2022-08-25T07:17:49.636Z,101603.53
2022-08-25T07:20:19.350Z,101607.25
2022-08-25T07:22:49.040Z,101600.75
2022-08-25T07:25:18.436Z,101596.13
2022-08-25T07:27:46.952Z,101594.75
2022-08-25T07:30:15.224Z,101590.44
2022-08-25T07:32:43.354Z,101594.19
2022-08-25T07:35:18.835Z,101594.03
2022-08-25T07:37:50.961Z,101580.72
2022-08-25T07:40:24.201Z,101593.75
2022-08-25T07:42:54.866Z,101588.06
2022-08-25T07:45:30.397Z,101585.97
2022-08-25T07:47:59.571Z,101580.53
2022-08-25T07:50:29.540Z,101581.56
2022-08-25T07:52:58.743Z,101590.25
2022-08-25T07:55:30.435Z,101590.34
2022-08-25T07:58:00.479Z,101594.91
2022-08-25T08:00:32.630Z,101582.25
2022-08-25T08:03:03.875Z,101587.22
2022-08-25T08:05:33.543Z,101585.66
2022-08-25T08:08:02.603Z,101589.06
2022-08-25T08:13:20.400Z,101582.81
2022-08-25T08:15:49.054Z,101580.63
2022-08-25T08:18:17.549Z,101578.09
2022-08-25T08:20:48.473Z,101587.53
2022-08-25T08:23:17.942Z,101572.91
2022-08-25T08:25:47.973Z,101573.53
2022-08-25T08:28:15.789Z,101572.88
2022-08-25T08:30:52.980Z,101574.34
2022-08-25T08:33:24.457Z,101564.53
2022-08-25T08:35:59.103Z,101566.03
2022-08-25T08:38:27.413Z,101551.28
2022-08-25T08:41:48.908Z,101547.31
2022-08-25T08:44:35.133Z,101539.00
2022-08-25T08:47:12.619Z,101543.59
2022-08-25T08:49:50.866Z,101535.19
2022-08-25T08:52:25.519Z,101540.19
2022-08-25T08:55:05.773Z,101535.63
2022-08-25T08:57:44.209Z,101549.50
2022-08-25T09:00:14.350Z,101550.19
2022-08-25T09:02:52.335Z,101554.53
2022-08-25T09:05:24.143Z,101547.34
2022-08-25T09:07:57.927Z,101546.56
2022-08-25T09:10:35.618Z,101545.03
2022-08-25T09:13:26.156Z,101533.78
2022-08-25T09:16:31.816Z,101538.00
2022-08-25T09:19:23.750Z,101538.53
2022-08-25T09:22:00.839Z,101533.53
2022-08-25T09:24:50.134Z,101533.59
2022-08-25T09:27:33.257Z,101529.63
2022-08-25T09:30:08.360Z,101525.63
2022-08-25T09:32:48.841Z,101532.88
2022-08-25T09:35:27.280Z,101528.38
2022-08-25T09:38:00.795Z,101528.28
2022-08-25T09:40:31.545Z,101517.66
2022-08-25T09:43:03.032Z,101527.47
2022-08-25T09:45:43.453Z,101532.69
2022-08-25T09:48:39.733Z,101520.91
2022-08-25T09:51:19.863Z,101525.94
2022-08-25T09:53:55.599Z,101522.91
2022-08-25T09:56:27.491Z,101527.81
2022-08-25T09:59:02.419Z,101516.81
2022-08-25T10:01:34.850Z,101514.81
2022-08-25T10:04:06.842Z,101508.75
2022-08-25T10:06:49.004Z,101500.41
2022-08-25T10:09:34.450Z,101509.69
2022-08-25T10:12:04.950Z,101500.78
2022-08-25T10:14:38.830Z,101502.28
2022-08-25T10:17:24.681Z,101493.91
2022-08-25T10:20:15.223Z,101495.84
2022-08-25T10:22:45.564Z,101497.88
2022-08-25T10:25:21.848Z,101485.94
2022-08-25T10:28:05.854Z,101489.38
2022-08-25T10:30:50.604Z,101483.13
2022-08-25T10:33:37.119Z,101489.66
2022-08-25T10:36:14.705Z,101486.50
2022-08-25T10:38:46.885Z,101497.31
2022-08-25T10:41:45.588Z,101487.84
2022-08-25T10:44:43.078Z,101482.03
2022-08-25T10:47:52.014Z,101479.03
2022-08-25T10:50:30.810Z,101468.03
2022-08-25T10:53:19.070Z,101465.16
2022-08-25T10:56:04.543Z,101458.72
2022-08-25T10:59:25.932Z,101455.91
2022-08-25T11:02:51.091Z,101450.59
2022-08-25T11:05:29.161Z,101447.41
2022-08-25T11:08:09.255Z,101441.41
2022-08-25T11:10:48.479Z,101442.94
2022-08-25T11:13:32.653Z,101445.81
2022-08-25T11:16:17.419Z,101433.00
2022-08-25T11:18:56.908Z,101441.22
2022-08-25T11:21:36.994Z,101431.06
2022-08-25T11:24:22.679Z,101431.97
2022-08-25T11:26:57.720Z,101422.81
2022-08-25T11:29:32.670Z,101419.75
2022-08-25T11:32:02.134Z,101408.75
2022-08-25T11:34:34.695Z,101416.84
2022-08-25T11:37:20.502Z,101412.59
2022-08-25T11:40:15.600Z,101406.94
2022-08-25T11:43:01.815Z,101406.31
2022-08-25T11:45:57.837Z,101407.16
2022-08-25T11:48:54.644Z,101403.31
2022-08-25T11:51:33.935Z,101401.88
2022-08-25T11:54:24.834Z,101402.50
2022-08-25T11:57:00.731Z,101399.44
2022-08-25T12:00:07.144Z,101391.00
2022-08-25T12:02:40.128Z,101394.66
2022-08-25T12:05:32.361Z,101385.09
2022-08-25T12:08:24.020Z,101376.59
2022-08-25T12:11:01.360Z,101379.34
2022-08-25T12:13:48.402Z,101371.44
2022-08-25T12:17:01.179Z,101367.53
2022-08-25T12:19:49.717Z,101364.81
2022-08-25T12:22:51.575Z,101359.66
2022-08-25T12:26:04.123Z,101357.69
2022-08-25T12:28:53.873Z,101358.34
2022-08-25T12:31:52.840Z,101351.25
2022-08-25T12:34:46.231Z,101346.19
2022-08-25T12:37:18.601Z,101353.06
2022-08-25T12:39:58.964Z,101352.53
2022-08-25T12:42:36.062Z,101348.59
2022-08-25T12:45:32.307Z,101340.81
2022-08-25T12:48:57.134Z,101335.81
2022-08-25T12:51:27.717Z,101329.50
2022-08-25T12:54:12.281Z,101327.91
2022-08-25T12:56:47.983Z,101326.81
2022-08-25T12:59:21.910Z,101329.94
2022-08-25T13:02:13.924Z,101327.34
2022-08-25T13:05:11.757Z,101328.50
2022-08-25T13:08:15.102Z,101323.50
2022-08-25T13:10:50.905Z,101322.09
2022-08-25T13:13:48.040Z,101322.81
2022-08-25T13:16:26.951Z,101311.81
2022-08-25T13:19:01.427Z,101310.31
2022-08-25T13:21:41.496Z,101304.91
2022-08-25T13:24:20.989Z,101302.88
2022-08-25T13:26:54.845Z,101297.31
2022-08-25T13:29:26.269Z,101291.91
2022-08-25T13:31:59.630Z,101296.34
2022-08-25T13:34:34.809Z,101289.19
2022-08-25T13:37:26.698Z,101287.63
2022-08-25T13:40:10.934Z,101290.31
2022-08-25T13:42:42.495Z,101288.53
2022-08-25T13:45:19.903Z,101281.53
2022-08-25T13:47:56.058Z,101279.09
2022-08-25T13:50:34.666Z,101266.31
2022-08-25T13:53:12.180Z,101278.47
2022-08-25T13:55:52.160Z,101281.31
2022-08-25T13:58:38.911Z,101276.16
2022-08-25T14:01:23.687Z,101266.31
2022-08-25T14:04:29.507Z,101272.06
2022-08-25T14:07:26.833Z,101272.19
2022-08-25T14:10:05.364Z,101262.88
2022-08-25T14:12:42.264Z,101264.41
2022-08-25T14:15:33.370Z,101260.84
2022-08-25T14:18:07.343Z,101264.09
2022-08-25T14:20:43.602Z,101260.03
2022-08-25T14:23:19.028Z,101255.56
2022-08-25T14:25:47.930Z,101255.88
2022-08-25T14:28:20.623Z,101247.31
2022-08-25T14:30:54.551Z,101241.16
2022-08-25T14:33:28.414Z,101233.97
2022-08-25T14:36:02.775Z,101239.31
2022-08-25T14:38:30.597Z,101234.03
2022-08-25T14:40:59.266Z,101236.25
2022-08-25T14:43:32.059Z,101228.53
2022-08-25T14:46:03.995Z,101233.00
2022-08-25T14:48:40.196Z,101224.50
2022-08-25T14:51:14.321Z,101224.38
2022-08-25T14:53:44.426Z,101230.63
2022-08-25T14:56:14.215Z,101223.09
2022-08-25T14:58:51.582Z,101219.59
2022-08-25T15:01:29.168Z,101213.84
2022-08-25T15:04:06.043Z,101207.44
2022-08-25T15:06:37.647Z,101209.53
2022-08-25T15:09:11.554Z,101213.94
2022-08-25T15:11:43.417Z,101213.00
2022-08-25T15:14:15.530Z,101207.63
2022-08-25T15:16:49.355Z,101209.00
2022-08-25T15:19:20.780Z,101201.81
2022-08-25T15:21:51.179Z,101206.28
2022-08-25T15:24:22.511Z,101195.31
2022-08-25T15:29:31.151Z,101195.84
2022-08-25T15:32:01.649Z,101190.81
2022-08-25T15:34:30.133Z,101199.72
2022-08-25T15:37:01.009Z,101200.91
2022-08-25T15:39:30.878Z,101189.66
2022-08-25T15:41:58.894Z,101193.84
2022-08-25T15:44:29.693Z,101187.22
2022-08-25T15:46:59.264Z,101171.59
2022-08-25T15:49:31.315Z,101179.81
2022-08-25T15:52:01.457Z,101176.00
2022-08-25T15:54:31.146Z,101172.56
2022-08-25T15:56:59.938Z,101171.69
2022-08-25T15:59:29.417Z,101164.44
2022-08-25T16:01:57.959Z,101164.72
2022-08-25T16:04:28.746Z,101165.72
2022-08-25T16:06:56.848Z,101152.97
2022-08-25T16:09:27.965Z,101157.34
2022-08-25T16:12:02.658Z,101170.06
2022-08-25T16:14:33.414Z,101161.31
2022-08-25T16:17:01.299Z,101154.00
2022-08-25T16:19:30.059Z,101152.31
2022-08-25T16:21:59.178Z,101149.53
2022-08-25T16:24:29.264Z,101146.63
2022-08-25T16:27:11.628Z,101143.19
2022-08-25T16:29:41.644Z,101133.84
2022-08-25T16:32:10.797Z,101134.41
2022-08-25T16:34:39.439Z,101131.13
2022-08-25T16:37:08.570Z,101129.28
2022-08-25T16:39:43.980Z,101135.88
2022-08-25T16:42:12.243Z,101118.13
2022-08-25T16:44:40.368Z,101122.09
2022-08-25T16:47:08.974Z,101129.50
2022-08-25T16:49:37.133Z,101130.19
2022-08-25T16:52:28.390Z,101127.53
2022-08-25T16:55:12.435Z,101126.88
2022-08-25T16:57:42.704Z,101120.00
2022-08-25T17:00:15.523Z,101122.81
2022-08-25T17:02:43.994Z,101118.81
2022-08-25T17:05:13.418Z,101123.00
2022-08-25T17:07:41.408Z,101122.94
2022-08-25T17:10:12.742Z,101129.50
2022-08-25T17:12:40.837Z,101123.50
2022-08-25T17:15:09.574Z,101120.06
2022-08-25T17:17:37.581Z,101112.47
2022-08-25T17:20:06.194Z,101119.47
2022-08-25T17:22:34.325Z,101127.09
2022-08-25T17:25:03.039Z,101123.41
2022-08-25T17:27:36.254Z,101123.78
2022-08-25T17:30:04.718Z,101118.66
2022-08-25T17:32:32.638Z,101117.41
2022-08-25T17:35:00.671Z,101121.97
2022-08-25T17:37:32.249Z,101123.81
2022-08-25T17:40:03.237Z,101129.66
2022-08-25T17:42:32.488Z,101126.44
2022-08-25T17:45:01.952Z,101119.78
2022-08-25T17:47:29.891Z,101127.03
2022-08-25T17:49:57.746Z,101127.94
2022-08-25T17:52:25.770Z,101132.28
2022-08-25T17:54:53.754Z,101122.53
2022-08-25T17:57:22.083Z,101124.72
2022-08-25T17:59:49.917Z,101124.53
2022-08-25T18:02:19.252Z,101127.22
2022-08-25T18:04:47.208Z,101124.69
2022-08-25T18:07:15.066Z,101126.53
2022-08-25T18:09:44.080Z,101131.19
2022-08-25T18:12:12.925Z,101130.97
2022-08-25T18:14:45.924Z,101138.94
2022-08-25T18:17:14.109Z,101137.75
2022-08-25T18:19:51.084Z,101134.13
2022-08-25T18:22:19.075Z,101142.28
2022-08-25T18:24:47.340Z,101138.25
2022-08-25T18:27:16.251Z,101145.78
2022-08-25T18:29:44.292Z,101147.22
2022-08-25T18:32:12.354Z,101139.81
2022-08-25T18:34:40.357Z,101144.63
2022-08-25T18:37:23.570Z,101141.09
2022-08-25T18:40:08.921Z,101140.72
2022-08-25T18:42:37.008Z,101151.50
2022-08-25T18:45:07.428Z,101150.38
2022-08-25T18:47:40.861Z,101149.63
2022-08-25T18:50:10.389Z,101155.63
2022-08-25T18:52:39.778Z,101151.50
2022-08-25T18:55:09.213Z,101153.50
2022-08-25T18:57:41.562Z,101157.97
2022-08-25T19:00:15.941Z,101162.25
2022-08-25T19:02:47.021Z,101163.53
2022-08-25T19:05:15.761Z,101155.97
2022-08-25T19:07:51.658Z,101156.22
2022-08-25T19:10:20.825Z,101163.97
2022-08-25T19:12:52.304Z,101163.47
2022-08-25T19:15:24.873Z,101160.00
2022-08-25T19:17:54.006Z,101155.25
2022-08-25T19:20:24.433Z,101166.50
2022-08-25T19:22:54.265Z,101170.75
2022-08-25T19:25:23.176Z,101166.81
2022-08-25T19:27:52.282Z,101164.72
2022-08-25T19:30:23.702Z,101170.41
2022-08-25T19:32:52.693Z,101170.25
2022-08-25T19:35:31.765Z,101167.88
2022-08-25T19:38:03.493Z,101171.16
2022-08-25T19:40:37.749Z,101166.22
2022-08-25T19:43:08.621Z,101159.66
2022-08-25T19:45:37.911Z,101164.38
2022-08-25T19:48:07.757Z,101167.84
2022-08-25T19:50:36.244Z,101171.63
2022-08-25T19:53:05.962Z,101171.41
2022-08-25T19:55:34.075Z,101164.59
2022-08-25T19:58:02.078Z,101172.72
2022-08-25T20:00:38.811Z,101165.13
2022-08-25T20:03:08.820Z,101166.13
2022-08-25T20:05:38.406Z,101174.38
2022-08-25T20:08:07.720Z,101165.13
2022-08-25T20:10:41.644Z,101168.59
2022-08-25T20:13:10.505Z,101161.88
2022-08-25T20:15:39.189Z,101168.44
2022-08-25T20:18:08.462Z,101171.81
2022-08-25T20:20:36.825Z,101166.97
2022-08-25T20:23:25.175Z,101160.84
2022-08-25T20:25:57.070Z,101166.66
2022-08-25T20:28:25.372Z,101163.44
2022-08-25T20:30:53.248Z,101160.16
2022-08-25T20:33:23.150Z,101161.78
2022-08-25T20:35:54.143Z,101167.59
2022-08-25T20:38:24.066Z,101171.88
2022-08-25T20:40:51.924Z,101167.44
2022-08-25T20:43:21.144Z,101158.41
2022-08-25T20:45:49.119Z,101163.84
2022-08-25T20:48:20.513Z,101156.78
2022-08-25T20:50:57.199Z,101149.47
2022-08-25T20:53:26.167Z,101149.66
2022-08-25T20:55:54.013Z,101159.41
2022-08-25T20:58:23.174Z,101151.06
2022-08-25T21:00:51.549Z,101146.47
2022-08-25T21:03:20.830Z,101151.06
2022-08-25T21:05:49.002Z,101151.78
2022-08-25T21:08:22.049Z,101153.66
2022-08-25T21:10:54.886Z,101145.16
2022-08-25T21:13:26.059Z,101148.56
2022-08-25T21:15:54.358Z,101146.84
2022-08-25T21:18:22.280Z,101151.41
2022-08-25T21:20:50.110Z,101144.94
2022-08-25T21:23:17.974Z,101149.00
2022-08-25T21:25:45.884Z,101145.47
2022-08-25T21:28:14.672Z,101137.16
2022-08-25T21:30:47.403Z,101141.56
2022-08-25T21:33:15.412Z,101138.31
2022-08-25T21:35:43.788Z,101146.09
2022-08-25T21:38:11.738Z,101135.06
2022-08-25T21:40:39.783Z,101140.16
2022-08-25T21:43:12.761Z,101141.13
2022-08-25T21:45:46.133Z,101141.28
2022-08-25T21:48:16.626Z,101142.22
2022-08-25T21:50:44.487Z,101141.44
2022-08-25T21:53:12.873Z,101139.28
2022-08-25T21:55:44.055Z,101142.03
2022-08-25T21:58:13.037Z,101133.88
2022-08-25T22:00:41.697Z,101141.53
2022-08-25T22:03:09.521Z,101134.78
2022-08-25T22:05:39.340Z,101141.03
2022-08-25T22:08:08.470Z,101142.63
2022-08-25T22:10:36.312Z,101139.88
2022-08-25T22:13:05.479Z,101134.06
2022-08-25T22:15:33.388Z,101128.16
2022-08-25T22:18:01.354Z,101130.50
2022-08-25T22:20:29.485Z,101127.00
2022-08-25T22:23:00.158Z,101124.63
2022-08-25T22:25:28.139Z,101119.13
2022-08-25T22:27:57.157Z,101127.94
2022-08-25T22:30:25.362Z,101126.03
2022-08-25T22:32:58.345Z,101117.81
2022-08-25T22:35:26.790Z,101116.47
2022-08-25T22:37:54.845Z,101113.69
2022-08-25T22:40:24.494Z,101124.19
2022-08-25T22:42:53.289Z,101127.50
2022-08-25T22:45:21.456Z,101118.63
2022-08-25T22:47:49.422Z,101113.03
2022-08-25T22:50:17.433Z,101114.00
2022-08-25T22:52:47.568Z,101106.59
2022-08-25T22:55:16.254Z,101099.47
2022-08-25T22:57:45.907Z,101106.63
2022-08-25T23:00:17.437Z,101103.59
2022-08-25T23:02:47.551Z,101103.69
2022-08-25T23:05:16.388Z,101094.69
2022-08-25T23:07:44.560Z,101107.91
2022-08-25T23:10:15.110Z,101103.69
2022-08-25T23:12:44.621Z,101102.16
2022-08-25T23:15:14.454Z,101106.16
2022-08-25T23:17:42.507Z,101096.59
2022-08-25T23:20:25.296Z,101094.31
2022-08-25T23:22:54.213Z,101086.56
2022-08-25T23:25:23.375Z,101088.94
2022-08-25T23:27:52.656Z,101085.25
2022-08-25T23:30:21.451Z,101086.06
2022-08-25T23:32:49.437Z,101093.25
2022-08-25T23:35:18.148Z,101083.28
2022-08-25T23:37:47.340Z,101077.66
2022-08-25T23:40:19.190Z,101087.56
2022-08-25T23:42:47.650Z,101084.03
2022-08-25T23:45:18.050Z,101077.03
2022-08-25T23:47:45.855Z,101071.53
2022-08-25T23:50:14.044Z,101082.03
2022-08-25T23:52:41.914Z,101079.00
2022-08-25T23:55:10.616Z,101071.38
2022-08-25T23:57:38.507Z,101074.19
